Time;durP1;ratioP1;P1;durP2;ratioP2;P2;SDS_P1;SDS_P2;PMS_P1;PMS_P2;Temp;Humidity;BMP_temperature;BMP_pressure;BME280_temperature;BME280_humidity;BME280_pressure;Samples;Min_cycle;Max_cycle;Signal;HPM_P1;HPM_P2
2022/03/04 00:01:08;;;;;;;25.27;11.88;;;;;;;0.15;100.00;101367.31;6073885;29;20100;-90
2022/03/04 00:04:10;;;;;;;28.20;13.02;;;;;;;0.14;100.00;101355.44;6077717;29;20051;-90
2022/03/04 00:07:12;;;;;;;30.70;13.07;;;;;;;0.12;100.00;101359.72;6094509;29;20576;-90
2022/03/04 00:10:14;;;;;;;28.67;13.73;;;;;;;0.12;100.00;101361.44;6092347;29;20127;-89
2022/03/04 00:13:17;;;;;;;29.73;12.18;;;;;;;0.11;100.00;101365.69;6087687;29;20103;-90
2022/03/04 00:16:20;;;;;;;29.77;12.75;;;;;;;0.13;100.00;101369.03;6074604;29;20036;-90
2022/03/04 00:19:22;;;;;;;25.48;12.50;;;;;;;0.16;100.00;101360.50;6094614;29;20036;-90
2022/03/04 00:22:24;;;;;;;26.52;12.05;;;;;;;0.12;100.00;101366.53;6083919;29;20417;-90
2022/03/04 00:25:27;;;;;;;26.70;12.85;;;;;;;0.08;100.00;101363.22;6091979;29;20127;-90
2022/03/04 00:28:29;;;;;;;28.45;12.30;;;;;;;0.03;100.00;101372.66;6095110;29;20040;-90
2022/03/04 00:31:33;;;;;;;29.77;13.15;;;;;;;0.09;100.00;101367.41;6072699;29;20048;-90
2022/03/04 00:34:35;;;;;;;28.38;13.55;;;;;;;0.11;100.00;101362.31;6087420;29;20899;-90
2022/03/04 00:37:37;;;;;;;27.45;12.40;;;;;;;0.09;100.00;101366.59;6094103;29;20036;-89
2022/03/04 00:40:39;;;;;;;29.35;13.85;;;;;;;0.11;100.00;101372.50;6086475;29;20048;-90
2022/03/04 00:43:43;;;;;;;29.70;12.30;;;;;;;0.09;100.00;101372.50;6072248;29;20039;-90
2022/03/04 00:46:45;;;;;;;30.23;13.60;;;;;;;0.10;100.00;101378.44;6074252;29;20055;-90
2022/03/04 00:49:47;;;;;;;30.67;11.70;;;;;;;0.12;100.00;101372.44;6095024;29;20554;-90
2022/03/04 00:52:50;;;;;;;24.65;11.98;;;;;;;0.15;100.00;101376.63;6094418;29;20079;-90
2022/03/04 00:55:52;;;;;;;26.67;13.05;;;;;;;0.17;100.00;101377.44;6094202;29;20084;-90
2022/03/04 00:58:54;;;;;;;25.42;12.02;;;;;;;0.18;100.00;101374.03;6073429;29;20048;-90
2022/03/04 01:01:56;;;;;;;28.27;12.48;;;;;;;0.14;100.00;101373.25;6094259;29;20044;-90
2022/03/04 01:04:59;;;;;;;27.38;11.68;;;;;;;0.11;100.00;101378.41;6094686;29;20048;-90
2022/03/04 01:08:01;;;;;;;24.27;11.80;;;;;;;0.15;100.00;101384.25;6076717;29;20054;-90
2022/03/04 01:11:03;;;;;;;24.08;11.88;;;;;;;0.11;100.00;101377.59;6093003;29;20043;-90
2022/03/04 01:14:07;;;;;;;24.70;11.18;;;;;;;0.13;100.00;101369.03;6095708;29;20059;-89
2022/03/04 01:17:09;;;;;;;24.75;10.50;;;;;;;0.14;100.00;101375.78;6093510;29;20072;-90
2022/03/04 01:20:11;;;;;;;25.38;11.35;;;;;;;0.14;100.00;101373.25;6077051;29;20040;-89
2022/03/04 01:23:14;;;;;;;23.73;10.88;;;;;;;0.08;100.00;101381.03;6093115;29;20050;-90
2022/03/04 01:26:16;;;;;;;22.88;10.88;;;;;;;0.09;100.00;101381.88;6079609;29;20051;-90
2022/03/04 01:29:18;;;;;;;20.13;10.38;;;;;;;0.13;100.00;101376.69;6077976;29;20044;-90
2022/03/04 01:32:20;;;;;;;21.48;9.60;;;;;;;0.10;100.00;101374.22;6089057;29;20044;-89
2022/03/04 01:35:22;;;;;;;22.67;10.63;;;;;;;0.10;100.00;101374.22;6093719;29;20048;-90
2022/03/04 01:38:24;;;;;;;26.85;10.95;;;;;;;0.15;100.00;101364.75;6088394;29;20525;-90
2022/03/04 01:41:27;;;;;;;23.05;10.32;;;;;;;0.15;100.00;101361.34;6091272;29;20048;-89
2022/03/04 01:44:29;;;;;;;17.75;10.15;;;;;;;0.16;100.00;101363.88;6083086;29;20047;-89
2022/03/04 01:47:32;;;;;;;23.10;10.23;;;;;;;0.12;100.00;101361.44;6060650;29;20040;-89
2022/03/04 01:50:35;;;;;;;21.63;9.32;;;;;;;0.11;100.00;101354.69;6101812;29;20032;-90
2022/03/04 01:53:39;;;;;;;18.73;9.77;;;;;;;0.09;100.00;101349.59;6083182;29;20627;-90
2022/03/04 01:56:56;;;;;;;22.30;10.80;;;;;;;0.13;100.00;101346.13;6092491;29;20051;-90
2022/03/04 01:59:58;;;;;;;21.90;9.70;;;;;;;0.09;100.00;101349.59;6094408;29;20036;-89
2022/03/04 02:03:00;;;;;;;20.15;9.13;;;;;;;0.12;100.00;101338.50;6098218;29;20040;-89
2022/03/04 02:06:03;;;;;;;19.40;8.68;;;;;;;0.13;100.00;101341.03;6088777;29;20040;-89
2022/03/04 02:09:05;;;;;;;21.52;9.98;;;;;;;0.13;100.00;101346.13;6092042;29;20484;-90
2022/03/04 02:12:08;;;;;;;18.73;9.48;;;;;;;0.20;100.00;101339.22;6075590;29;20045;-90
2022/03/04 02:15:11;;;;;;;19.55;9.93;;;;;;;0.15;100.00;101339.31;6090351;29;20052;-89
2022/03/04 02:18:15;;;;;;;19.42;8.75;;;;;;;0.16;100.00;101343.50;6090924;29;20040;-90
2022/03/04 02:21:20;;;;;;;22.65;10.02;;;;;;;0.19;100.00;101337.50;6088369;29;20043;-89
2022/03/04 02:24:24;;;;;;;18.27;9.18;;;;;;;0.17;100.00;101342.66;6086396;29;20048;-90
2022/03/04 02:27:26;;;;;;;15.10;7.93;;;;;;;0.24;100.00;101342.50;6091593;29;20044;-89
2022/03/04 02:30:28;;;;;;;17.55;8.90;;;;;;;0.27;100.00;101350.91;6090503;29;20059;-90
2022/03/04 02:33:31;;;;;;;17.30;7.75;;;;;;;0.28;100.00;101344.13;6087751;29;20056;-89
2022/03/04 02:36:37;;;;;;;17.20;8.77;;;;;;;0.21;100.00;101344.25;6088091;29;20494;-90
2022/03/04 02:39:39;;;;;;;16.40;8.50;;;;;;;0.25;100.00;101349.25;6066226;29;20690;-90
2022/03/04 02:42:43;;;;;;;15.88;7.75;;;;;;;0.25;100.00;101356.88;6090980;29;20036;-90
2022/03/04 02:45:45;;;;;;;18.75;8.55;;;;;;;0.35;100.00;101350.75;6080783;29;20048;-90
2022/03/04 02:48:48;;;;;;;14.85;7.45;;;;;;;0.35;100.00;101348.19;6075828;29;20048;-90
2022/03/04 02:51:50;;;;;;;15.77;9.15;;;;;;;0.29;100.00;101353.41;6083785;29;20486;-90
2022/03/04 02:54:52;;;;;;;17.52;8.60;;;;;;;0.33;100.00;101357.56;6074197;29;20040;-90
2022/03/04 02:57:54;;;;;;;18.02;7.82;;;;;;;0.30;100.00;101347.44;6069779;29;20036;-90
2022/03/04 03:00:56;;;;;;;15.15;7.47;;;;;;;0.29;100.00;101356.78;6079378;29;20388;-90
2022/03/04 03:03:59;;;;;;;16.88;7.93;;;;;;;0.31;100.00;101349.13;6065850;29;20051;-90
2022/03/04 03:07:01;;;;;;;15.18;8.18;;;;;;;0.32;100.00;101359.25;6084554;29;20143;-89
2022/03/04 03:10:06;;;;;;;13.40;6.90;;;;;;;0.37;100.00;101351.53;6084555;29;20044;-90
2022/03/04 03:13:08;;;;;;;16.02;7.43;;;;;;;0.36;100.00;101355.78;6061431;29;20577;-89
2022/03/04 03:16:11;;;;;;;13.55;7.40;;;;;;;0.37;100.00;101351.53;6079064;29;20049;-89
2022/03/04 03:19:13;;;;;;;15.35;7.47;;;;;;;0.35;100.00;101346.47;6084967;29;20480;-90
2022/03/04 03:22:18;;;;;;;16.08;7.80;;;;;;;0.33;100.00;101350.78;6079696;29;20048;-90
2022/03/04 03:25:20;;;;;;;15.48;7.28;;;;;;;0.32;100.00;101349.06;6073049;29;20044;-90
2022/03/04 03:28:22;;;;;;;13.70;7.47;;;;;;;0.31;100.00;101352.50;6085393;29;20372;-90
2022/03/04 03:31:24;;;;;;;13.20;7.28;;;;;;;0.33;100.00;101350.78;6085387;29;20040;-90
2022/03/04 03:34:26;;;;;;;14.00;6.40;;;;;;;0.34;100.00;101349.88;6095968;29;20052;-90
2022/03/04 03:37:42;;;;;;;13.27;6.72;;;;;;;0.34;100.00;101352.44;6088354;29;20501;-90
2022/03/04 03:40:46;;;;;;;13.38;6.25;;;;;;;0.35;100.00;101350.75;6091146;29;20047;-90
2022/03/04 03:44:08;;;;;;;13.25;7.15;;;;;;;0.36;100.00;101344.78;6093840;29;20058;-90
2022/03/04 03:47:11;;;;;;;13.80;6.70;;;;;;;0.35;100.00;101343.09;6059447;29;20056;-89
2022/03/04 03:50:13;;;;;;;11.73;5.53;;;;;;;0.38;100.00;101348.13;6090160;29;20040;-90
2022/03/04 03:53:15;;;;;;;11.65;5.93;;;;;;;0.35;100.00;101346.47;6093511;29;20051;-90
2022/03/04 03:56:17;;;;;;;16.88;6.80;;;;;;;0.35;100.00;101345.66;6092469;29;20048;-90
2022/03/04 03:59:19;;;;;;;10.75;5.70;;;;;;;0.40;100.00;101351.47;6088972;29;20048;-90
2022/03/04 04:02:22;;;;;;;12.73;5.97;;;;;;;0.53;100.00;101342.66;6060511;29;20048;-90
2022/03/04 04:05:25;;;;;;;9.65;5.35;;;;;;;0.44;100.00;101342.88;6082007;29;20040;-90
2022/03/04 04:08:27;;;;;;;10.38;5.47;;;;;;;0.37;100.00;101349.84;6093141;29;20040;-89
2022/03/04 04:11:32;;;;;;;11.98;5.97;;;;;;;0.39;100.00;101353.16;6081976;29;20618;-90
2022/03/04 04:14:34;;;;;;;11.20;5.82;;;;;;;0.42;100.00;101354.78;6101369;29;20071;-90
2022/03/04 04:17:37;;;;;;;11.93;5.72;;;;;;;0.41;100.00;101361.59;6091457;29;20032;-90
2022/03/04 04:20:39;;;;;;;10.73;5.82;;;;;;;0.43;100.00;101361.59;6101138;29;20510;-90
2022/03/04 04:23:42;;;;;;;14.75;5.68;;;;;;;0.36;100.00;101358.34;6088408;29;20134;-90
2022/03/04 04:26:44;;;;;;;10.68;5.72;;;;;;;0.31;100.00;101356.78;6080115;29;20052;-90
2022/03/04 04:29:46;;;;;;;8.80;4.88;;;;;;;0.29;100.00;101358.50;6088715;29;20087;-90
2022/03/04 04:32:49;;;;;;;10.05;5.47;;;;;;;0.25;100.00;101356.88;6089969;29;20048;-90
2022/03/04 04:35:51;;;;;;;10.43;6.10;;;;;;;0.23;100.00;101363.75;6096778;29;20067;-90
2022/03/04 04:38:53;;;;;;;13.05;5.80;;;;;;;0.30;100.00;101360.16;6093073;29;20044;-90
2022/03/04 04:41:55;;;;;;;10.77;5.38;;;;;;;0.30;100.00;101363.59;6092198;29;20481;-90
2022/03/04 04:44:58;;;;;;;11.20;5.40;;;;;;;0.27;100.00;101355.16;6095259;29;20044;-90
2022/03/04 04:48:13;;;;;;;10.90;5.28;;;;;;;0.28;100.00;101357.69;6095192;29;20047;-90
2022/03/04 04:51:15;;;;;;;12.68;6.15;;;;;;;0.27;100.00;101365.34;6078811;29;20044;-90
2022/03/04 04:54:18;;;;;;;14.70;6.82;;;;;;;0.19;100.00;101366.34;6073381;29;20225;-90
2022/03/04 04:57:20;;;;;;;16.38;7.13;;;;;;;0.19;100.00;101368.88;6090051;29;20048;-90
2022/03/04 05:00:23;;;;;;;15.07;6.78;;;;;;;0.14;100.00;101362.25;6089926;29;20040;-90
2022/03/04 05:03:26;;;;;;;13.07;7.28;;;;;;;0.13;100.00;101358.03;6086446;29;20044;-90
2022/03/04 05:06:29;;;;;;;16.77;7.55;;;;;;;0.09;100.00;101357.25;6081272;29;20063;-90
2022/03/04 05:09:33;;;;;;;18.13;8.07;;;;;;;0.08;100.00;101360.66;6084861;29;20056;-90
2022/03/04 05:12:48;;;;;;;19.30;9.75;;;;;;;0.10;100.00;101353.84;6082487;29;20127;-90
2022/03/04 05:15:50;;;;;;;22.77;11.27;;;;;;;0.16;100.00;101357.94;6082306;29;20591;-90
2022/03/04 05:18:52;;;;;;;25.05;11.32;;;;;;;0.09;100.00;101362.34;6088028;29;20048;-90
2022/03/04 05:21:54;;;;;;;25.15;12.05;;;;;;;0.03;100.00;101359.09;6085373;29;20032;-90
2022/03/04 05:24:57;;;;;;;24.90;11.23;;;;;;;-0.01;100.00;101366.78;6075435;29;20072;-90
2022/03/04 05:27:59;;;;;;;23.23;11.20;;;;;;;-0.03;100.00;101373.59;6079633;29;20044;-90
2022/03/04 05:31:01;;;;;;;24.60;11.15;;;;;;;-0.07;100.00;101377.09;6092041;29;20055;-89
2022/03/04 05:34:03;;;;;;;20.38;10.63;;;;;;;-0.01;100.00;101373.59;6091047;29;20040;-90
2022/03/04 05:37:06;;;;;;;21.30;10.60;;;;;;;-0.06;100.00;101383.84;6090932;29;20424;-90
2022/03/04 05:40:09;;;;;;;16.27;8.68;;;;;;;-0.09;100.00;101378.00;6070119;29;20052;-90
2022/03/04 05:43:13;;;;;;;17.20;8.57;;;;;;;-0.12;100.00;101373.00;6085552;29;20044;-90
2022/03/04 05:46:15;;;;;;;22.05;10.40;;;;;;;-0.18;100.00;101373.94;6095158;29;20043;-89
2022/03/04 05:49:17;;;;;;;24.13;12.25;;;;;;;-0.20;100.00;101369.75;6077598;29;20051;-90
2022/03/04 05:52:20;;;;;;;19.88;10.75;;;;;;;-0.33;100.00;101374.25;6093929;29;20032;-90
2022/03/04 05:55:22;;;;;;;20.58;10.90;;;;;;;-0.42;100.00;101365.13;6076415;29;20151;-90
2022/03/04 05:58:24;;;;;;;20.13;9.90;;;;;;;-0.48;100.00;101366.06;6079984;29;20044;-90
2022/03/04 06:01:26;;;;;;;17.77;9.35;;;;;;;-0.49;100.00;101364.38;6074742;29;20142;-90
2022/03/04 06:04:29;;;;;;;20.58;9.18;;;;;;;-0.45;100.00;101367.69;6092223;29;20044;-90
2022/03/04 06:07:33;;;;;;;16.38;9.50;;;;;;;-0.46;100.00;101371.13;6093069;29;20056;-90
2022/03/04 06:10:50;;;;;;;18.83;10.70;;;;;;;-0.43;100.00;101381.22;6069582;29;20056;-90
2022/03/04 06:13:52;;;;;;;28.48;13.77;;;;;;;-0.39;100.00;101385.41;6084736;29;20438;-89
2022/03/04 06:16:54;;;;;;;27.02;13.68;;;;;;;-0.41;100.00;101388.84;6082370;29;20052;-90
2022/03/04 06:20:00;;;;;;;27.90;12.68;;;;;;;-0.36;100.00;101392.97;6096016;29;20094;-90
2022/03/04 06:23:03;;;;;;;31.48;15.02;;;;;;;-0.43;100.00;101391.41;6084430;29;20065;-89
2022/03/04 06:26:05;;;;;;;27.58;14.45;;;;;;;-0.41;100.00;101388.84;6071430;29;20517;-90
2022/03/04 06:29:07;;;;;;;31.92;15.07;;;;;;;-0.24;100.00;101399.50;6073468;29;20044;-90
2022/03/04 06:32:10;;;;;;;31.45;15.13;;;;;;;-0.22;100.00;101396.06;6084194;29;20044;-90
2022/03/04 06:35:12;;;;;;;25.42;13.10;;;;;;;-0.11;100.00;101400.09;6071481;29;20564;-90
2022/03/04 06:38:27;;;;;;;28.48;12.10;;;;;;;-0.01;100.00;101401.59;6078623;29;20046;-90
2022/03/04 06:41:30;;;;;;;26.70;12.55;;;;;;;0.09;100.00;101403.06;6090657;29;20044;-89
2022/03/04 06:44:32;;;;;;;27.10;11.93;;;;;;;0.15;100.00;101402.94;6093073;29;20067;-89
2022/03/04 06:47:35;;;;;;;20.67;10.45;;;;;;;0.19;100.00;101411.34;6084088;29;20043;-89
2022/03/04 06:50:37;;;;;;;21.63;10.35;;;;;;;0.29;100.00;101414.53;6066053;29;20048;-90
2022/03/04 06:53:40;;;;;;;21.35;10.38;;;;;;;0.36;100.00;101418.63;6095358;29;20048;-90
2022/03/04 06:56:42;;;;;;;18.08;10.23;;;;;;;0.43;100.00;101410.81;6070586;29;20056;-90
2022/03/04 06:59:44;;;;;;;21.95;10.20;;;;;;;0.55;100.00;101419.88;6076303;29;20048;-90
2022/03/04 07:02:47;;;;;;;19.80;9.95;;;;;;;0.60;100.00;101422.31;6087304;29;20044;-90
2022/03/04 07:05:50;;;;;;;23.88;10.27;;;;;;;0.70;100.00;101425.50;6099074;29;20058;-90
2022/03/04 07:08:52;;;;;;;24.05;11.52;;;;;;;0.80;100.00;101430.34;6094687;29;20060;-90
2022/03/04 07:11:54;;;;;;;23.42;11.82;;;;;;;0.72;100.00;101422.03;6081719;29;20048;-90
2022/03/04 07:14:56;;;;;;;24.25;12.02;;;;;;;0.85;100.00;101430.22;6095378;29;20079;-89
2022/03/04 07:17:58;;;;;;;25.70;12.77;;;;;;;0.88;100.00;101440.34;6094435;29;20410;-90
2022/03/04 07:21:00;;;;;;;24.13;12.15;;;;;;;0.93;100.00;101442.78;6097476;29;20044;-90
2022/03/04 07:24:03;;;;;;;29.63;14.07;;;;;;;1.00;100.00;101444.31;6097857;29;20053;-90
2022/03/04 07:27:05;;;;;;;34.58;14.95;;;;;;;1.04;100.00;101439.09;6098223;29;20039;-90
2022/03/04 07:30:14;;;;;;;32.25;14.70;;;;;;;1.14;100.00;101443.97;6101375;29;20075;-90
2022/03/04 07:33:16;;;;;;;34.53;15.52;;;;;;;1.21;100.00;101448.03;6077751;29;20047;-90
2022/03/04 07:36:19;;;;;;;34.88;16.98;;;;;;;1.23;100.00;101449.66;6093987;29;20573;-90
2022/03/04 07:39:21;;;;;;;44.95;18.35;;;;;;;1.25;100.00;101457.28;6087327;29;20039;-90
2022/03/04 07:42:23;;;;;;;49.10;19.83;;;;;;;1.36;100.00;101459.56;6100749;29;20043;-90
2022/03/04 07:45:26;;;;;;;48.78;21.13;;;;;;;1.45;100.00;101462.72;6102160;29;20044;-90
2022/03/04 07:48:27;;;;;;;51.38;20.63;;;;;;;1.47;100.00;101465.22;6096111;29;20052;-90
2022/03/04 07:51:31;;;;;;;56.92;22.33;;;;;;;1.58;100.00;101477.69;6093205;29;20052;-90
2022/03/04 07:54:33;;;;;;;53.92;22.77;;;;;;;1.62;100.00;101471.66;6087914;29;20051;-90
2022/03/04 07:57:36;;;;;;;49.92;21.98;;;;;;;1.68;100.00;101476.56;6096216;29;20107;-90
2022/03/04 08:00:38;;;;;;;52.50;22.35;;;;;;;1.67;100.00;101474.91;6097467;29;20040;-90
2022/03/04 08:03:46;;;;;;;46.17;20.70;;;;;;;1.61;100.00;101481.00;6099982;29;20045;-90
2022/03/04 08:06:49;;;;;;;47.88;19.95;;;;;;;1.64;100.00;101480.94;6097254;29;20069;-90
2022/03/04 08:09:51;;;;;;;46.53;20.17;;;;;;;1.69;100.00;101485.91;6092572;29;20051;-91
2022/03/04 08:12:54;;;;;;;44.83;20.88;;;;;;;1.81;100.00;101477.09;6093780;29;20039;-90
2022/03/04 08:15:57;;;;;;;49.42;20.75;;;;;;;1.78;100.00;101489.94;6095085;29;20044;-90
2022/03/04 08:19:03;;;;;;;46.20;18.88;;;;;;;1.74;100.00;101484.09;6100635;29;20043;-90
2022/03/04 08:22:06;;;;;;;48.63;20.00;;;;;;;1.83;100.00;101483.00;6097922;29;20048;-90
2022/03/04 08:25:27;;;;;;;47.95;20.27;;;;;;;1.86;100.00;101488.88;6095688;29;20048;-90
2022/03/04 08:28:32;;;;;;;51.08;21.00;;;;;;;1.90;100.00;101487.06;6076837;29;20044;-90
2022/03/04 08:31:36;;;;;;;48.85;20.75;;;;;;;1.92;100.00;101485.31;6096099;29;20123;-90
2022/03/04 08:34:38;;;;;;;40.38;18.10;;;;;;;2.02;100.00;101489.28;6098939;29;20048;-90
2022/03/04 08:37:41;;;;;;;39.35;17.90;;;;;;;2.07;100.00;101489.16;6093043;29;20040;-90
2022/03/04 08:40:43;;;;;;;42.80;18.58;;;;;;;2.07;100.00;101494.25;6081170;29;20055;-90
2022/03/04 08:43:51;;;;;;;43.13;18.88;;;;;;;2.14;100.00;101498.31;6095174;29;20044;-90
2022/03/04 08:46:53;;;;;;;41.63;18.08;;;;;;;2.20;100.00;101499.84;6101893;29;20107;-90
2022/03/04 08:49:56;;;;;;;46.22;18.98;;;;;;;2.29;100.00;101512.38;6098292;29;20132;-90
2022/03/04 08:53:11;;;;;;;41.95;17.25;;;;;;;2.25;100.00;101505.66;6079164;29;20554;-90
2022/03/04 08:56:13;;;;;;;38.08;17.33;;;;;;;2.40;100.00;101499.28;6100205;29;20052;-90
2022/03/04 08:59:15;;;;;;;36.80;15.77;;;;;;;2.50;100.00;101504.06;6108560;29;20040;-90
2022/03/04 09:02:18;;;;;;;37.75;15.98;;;;;;;2.62;100.00;101510.53;6096933;29;20051;-91
2022/03/04 09:05:20;;;;;;;39.20;17.85;;;;;;;2.77;100.00;101515.16;6097533;29;20549;-90
2022/03/04 09:08:22;;;;;;;38.22;15.25;;;;;;;2.96;100.00;101506.94;6088135;29;20040;-90
2022/03/04 09:11:24;;;;;;;31.60;14.80;;;;;;;3.02;100.00;101510.13;6100078;29;20033;-90
2022/03/04 09:14:27;;;;;;;30.35;14.18;;;;;;;3.05;100.00;101504.09;6090344;29;20052;-90
2022/03/04 09:17:29;;;;;;;34.45;14.95;;;;;;;3.14;100.00;101505.53;6094881;29;20840;-91
2022/03/04 09:20:33;;;;;;;32.15;13.98;;;;;;;3.08;100.00;101505.72;6083415;29;20052;-90
2022/03/04 09:23:37;;;;;;;31.95;15.13;;;;;;;3.20;100.00;101507.88;6101865;29;20040;-90
2022/03/04 09:26:39;;;;;;;30.45;14.68;;;;;;;3.31;100.00;101505.81;6096650;29;20048;-90
2022/03/04 09:29:54;;;;;;;31.05;14.68;;;;;;;3.47;100.00;101515.53;6083981;29;20123;-90
2022/03/04 09:32:56;;;;;;;31.27;14.77;;;;;;;3.64;100.00;101516.63;6099226;29;20079;-90
2022/03/04 09:36:00;;;;;;;32.58;15.15;;;;;;;3.65;100.00;101518.31;6093054;29;20618;-90
2022/03/04 09:39:04;;;;;;;33.35;15.57;;;;;;;3.72;100.00;101529.16;6095307;29;20082;-90
2022/03/04 09:42:06;;;;;;;28.17;13.63;;;;;;;3.85;100.00;101521.91;6098969;29;20183;-90
2022/03/04 09:45:09;;;;;;;31.23;14.93;;;;;;;3.89;100.00;101521.75;6098743;29;20133;-90
2022/03/04 09:48:13;;;;;;;32.25;15.25;;;;;;;4.03;100.00;101528.13;6083053;29;20548;-91
2022/03/04 09:51:15;;;;;;;31.73;14.85;;;;;;;4.20;100.00;101527.50;6100842;29;20047;-90
2022/03/04 09:54:18;;;;;;;33.85;16.42;;;;;;;4.34;100.00;101532.13;6088055;29;20132;-90
2022/03/04 09:57:21;;;;;;;33.47;16.23;;;;;;;4.36;100.00;101530.34;6101641;29;20485;-91
2022/03/04 10:00:23;;;;;;;32.50;15.65;;;;;;;4.39;100.00;101528.50;6081440;29;20045;-91
2022/03/04 10:03:46;;;;;;;39.05;17.40;;;;;;;4.47;100.00;101531.63;6078960;29;20039;-90
2022/03/04 10:06:49;;;;;;;38.58;18.58;;;;;;;4.51;100.00;101532.34;6066445;29;20542;-91
2022/03/04 10:09:51;;;;;;;47.85;20.60;;;;;;;4.63;100.00;101534.44;6089199;29;20039;-91
2022/03/04 10:12:56;;;;;;;41.80;20.15;;;;;;;4.67;100.00;101536.00;6101185;29;20052;-90
2022/03/04 10:16:24;;;;;;;41.72;20.25;;;;;;;4.70;100.00;101538.44;6077928;29;20557;-91
2022/03/04 10:19:28;;;;;;;41.97;19.35;;;;;;;4.72;100.00;101541.81;6097754;29;20115;-90
2022/03/04 10:22:38;;;;;;;41.55;20.00;;;;;;;4.80;100.00;101532.97;6091626;29;20044;-91
2022/03/04 10:25:52;;;;;;;;;;;;;;;4.94;100.00;101540.94;6081234;29;20047;-91
2022/03/04 10:28:56;;;;;;;40.25;19.52;;;;;;;5.09;100.00;101542.94;6093778;29;20266;-91
2022/03/04 10:32:19;;;;;;;38.25;19.02;;;;;;;5.08;100.00;101530.16;6093297;29;20062;-91
2022/03/04 10:35:25;;;;;;;38.30;18.20;;;;;;;5.04;100.00;101532.00;6093576;29;20486;-91
2022/03/04 10:38:35;;;;;;;37.53;18.77;;;;;;;5.10;100.00;101536.91;6097560;29;20051;-91
2022/03/04 10:41:49;;;;;;;41.00;18.35;;;;;;;5.30;100.00;101538.66;6086506;29;20041;-90
2022/03/04 10:45:06;;;;;;;35.45;19.10;;;;;;;5.45;100.00;101536.38;6075118;29;20048;-91
2022/03/04 10:48:09;;;;;;;38.47;18.00;;;;;;;5.65;98.90;101525.28;6096895;29;20046;-90
2022/03/04 10:51:11;;;;;;;33.83;16.90;;;;;;;5.76;98.29;101526.50;6074916;29;20522;-90
2022/03/04 10:54:20;;;;;;;35.47;17.80;;;;;;;5.80;95.34;101524.59;6092529;29;20362;-90
2022/03/04 10:57:22;;;;;;;33.20;17.27;;;;;;;5.79;97.38;101536.63;6091374;29;20062;-91
2022/03/04 11:00:37;;;;;;;31.92;16.70;;;;;;;5.78;97.44;101531.53;6094938;29;20052;-91
2022/03/04 11:03:41;;;;;;;29.85;15.30;;;;;;;5.91;97.77;101524.13;6101229;29;20048;-90
2022/03/04 11:06:45;;;;;;;28.15;14.90;;;;;;;5.97;95.21;101527.31;6100967;29;20054;-91
2022/03/04 11:09:48;;;;;;;22.15;12.57;;;;;;;6.07;96.94;101524.34;6093248;29;20044;-91
2022/03/04 11:12:53;;;;;;;15.90;9.73;;;;;;;6.16;94.76;101521.34;6087979;29;20047;-90
2022/03/04 11:15:55;;;;;;;16.27;8.68;;;;;;;5.98;93.55;101523.84;6068516;29;20060;-90
2022/03/04 11:18:58;;;;;;;13.63;8.43;;;;;;;5.89;94.53;101521.66;6085023;29;20052;-90
2022/03/04 11:22:01;;;;;;;15.73;9.00;;;;;;;5.92;95.23;101511.25;6087249;29;20051;-90
2022/03/04 11:25:06;;;;;;;14.13;8.05;;;;;;;5.91;94.86;101519.00;6094896;29;20243;-90
2022/03/04 11:28:20;;;;;;;19.08;10.40;;;;;;;6.01;95.04;101510.88;6096927;29;20771;-90
2022/03/04 11:31:27;;;;;;;14.98;8.30;;;;;;;6.05;93.31;101514.13;6085292;29;20358;-90
2022/03/04 11:34:34;;;;;;;21.02;9.00;;;;;;;6.20;94.85;101505.72;6085964;29;20067;-90
2022/03/04 11:37:49;;;;;;;13.93;7.45;;;;;;;6.56;93.38;101512.69;6089058;29;20097;-90
2022/03/04 11:40:52;;;;;;;12.10;7.05;;;;;;;6.92;90.09;101511.84;6095785;29;20051;-90
2022/03/04 11:44:13;;;;;;;11.80;6.70;;;;;;;6.79;86.47;101503.88;6096520;29;20044;-91
2022/03/04 11:47:17;;;;;;;14.00;7.65;;;;;;;6.75;90.49;101504.09;6087245;29;20048;-90
2022/03/04 11:50:52;;;;;;;15.23;8.32;;;;;;;6.72;91.19;101504.25;6103897;29;20111;-90
2022/03/04 11:54:24;;;;;;;14.55;7.90;;;;;;;6.80;93.31;101510.69;6096337;29;20060;-90
2022/03/04 11:57:30;;;;;;;16.13;8.50;;;;;;;7.01;87.65;101500.31;6090518;29;20056;-90
2022/03/04 12:00:36;;;;;;;12.30;6.80;;;;;;;6.89;87.70;101501.72;6088071;29;20098;-91
2022/03/04 12:04:18;;;;;;;10.43;6.80;;;;;;;6.43;92.10;101501.28;6105838;29;20095;-90
2022/03/04 12:07:34;;;;;;;9.45;6.32;;;;;;;5.96;92.90;101491.41;6094405;29;20074;-91
2022/03/04 12:10:50;;;;;;;10.98;6.00;;;;;;;5.67;95.14;101483.22;6122975;29;20565;-91
2022/03/04 12:14:09;;;;;;;10.88;5.80;;;;;;;5.46;96.34;101491.81;6112428;29;20214;-91
2022/03/04 12:17:15;;;;;;;13.00;6.32;;;;;;;5.40;98.97;101483.47;6099993;29;20052;-90
2022/03/04 12:20:43;;;;;;;9.40;5.45;;;;;;;5.66;97.20;101483.25;6098916;29;20045;-91
2022/03/04 12:23:49;;;;;;;12.73;5.80;;;;;;;5.68;95.62;101484.88;6097666;29;20199;-91
2022/03/04 12:27:38;;;;;;;10.05;5.85;;;;;;;5.96;95.70;101481.13;6087518;29;20047;-91
2022/03/04 12:30:42;;;;;;;13.60;6.43;;;;;;;6.25;95.14;101482.38;6107127;29;20058;-91
2022/03/04 12:33:50;;;;;;;14.15;6.32;;;;;;;6.44;91.98;101493.50;6093819;29;20051;-91
2022/03/04 12:36:53;;;;;;;12.60;5.90;;;;;;;6.57;91.28;101492.94;6108355;29;20096;-91
2022/03/04 12:39:55;;;;;;;12.40;6.40;;;;;;;6.60;91.65;101497.94;6107127;29;20056;-91
2022/03/04 12:42:58;;;;;;;10.38;6.43;;;;;;;6.65;91.31;101486.50;6109842;29;20044;-91
2022/03/04 12:46:02;;;;;;;10.68;5.82;;;;;;;6.70;88.82;101494.03;6107127;29;20063;-91
2022/03/04 12:49:06;;;;;;;12.02;6.47;;;;;;;6.62;85.78;101498.69;6115422;29;20059;-91
2022/03/04 12:52:10;;;;;;;15.80;6.30;;;;;;;6.46;90.46;101489.13;6104372;29;20052;-91
2022/03/04 12:55:25;;;;;;;12.27;6.28;;;;;;;6.53;88.34;101487.09;6089963;29;20053;-91
2022/03/04 12:58:37;;;;;;;9.45;5.85;;;;;;;6.33;89.80;101488.00;6074918;29;20379;-91
2022/03/04 13:01:47;;;;;;;11.10;6.18;;;;;;;6.45;87.81;101490.03;6071195;29;20018;-91
2022/03/04 13:04:59;;;;;;;12.90;6.25;;;;;;;6.41;87.87;101493.66;6070381;29;20147;-91
2022/03/04 13:08:07;;;;;;;11.95;5.95;;;;;;;6.39;89.20;101481.78;6072331;29;20126;-91
2022/03/04 13:11:13;;;;;;;9.82;5.80;;;;;;;6.39;91.87;101485.16;6072529;29;20073;-91
2022/03/04 13:14:24;;;;;;;15.07;6.47;;;;;;;6.41;90.25;101488.50;6082174;29;20596;-91
2022/03/04 13:17:40;;;;;;;12.80;6.30;;;;;;;6.21;90.00;101486.00;6064675;29;20050;-90
2022/03/04 13:21:04;;;;;;;11.48;6.65;;;;;;;6.03;86.99;101479.94;6054671;29;20072;-91
2022/03/04 13:24:28;;;;;;;11.65;6.65;;;;;;;5.92;93.31;101482.16;6048308;29;20053;-91
2022/03/04 13:27:43;;;;;;;11.82;6.30;;;;;;;6.00;91.75;101480.09;6050675;29;20050;-91
2022/03/04 13:30:47;;;;;;;14.13;7.13;;;;;;;6.06;92.40;101481.53;6048205;29;20053;-91
2022/03/04 13:34:04;;;;;;;8.15;5.38;;;;;;;5.95;91.34;101466.63;6080638;29;20124;-91
2022/03/04 13:37:24;;;;;;;;;;;;;;;5.83;94.68;101473.09;6083901;29;20052;-91
2022/03/04 13:40:27;;;;;;;10.80;5.97;;;;;;;5.71;94.49;101468.47;6071688;29;19930;-91
2022/03/04 13:43:32;;;;;;;11.85;6.28;;;;;;;5.83;93.03;101475.66;6050369;29;20037;-91
2022/03/04 13:46:34;;;;;;;9.75;5.75;;;;;;;5.86;91.68;101466.97;6079121;29;20046;-91
2022/03/04 13:49:42;;;;;;;10.02;5.10;;;;;;;5.87;89.25;101458.38;6085760;29;20104;-91
2022/03/04 13:52:54;;;;;;;8.23;4.80;;;;;;;5.82;88.67;101449.13;6055534;29;20049;-91
2022/03/04 13:55:59;;;;;;;6.43;3.75;;;;;;;6.23;88.18;101453.34;6067492;29;20184;-91
2022/03/04 13:59:02;;;;;;;6.13;3.78;;;;;;;6.54;86.10;101455.34;6072747;29;20134;-91
2022/03/04 14:02:05;;;;;;;7.35;3.78;;;;;;;6.56;83.74;101453.53;6068855;29;20215;-90
2022/03/04 14:05:08;;;;;;;6.32;3.70;;;;;;;6.52;83.99;101459.72;6068115;29;20052;-91
2022/03/04 14:08:16;;;;;;;5.28;3.30;;;;;;;6.41;83.10;101452.50;6055218;29;20432;-90